Time;durP1;ratioP1;P1;durP2;ratioP2;P2;SDS_P1;SDS_P2;PMS_P1;PMS_P2;Temp;Humidity;BMP_temperature;BMP_pressure;BME280_temperature;BME280_humidity;BME280_pressure;Samples;Min_cycle;Max_cycle;Signal;HPM_P1;HPM_P2
2023/03/11 00:02:13;;;;;;;1.98;0.35;;;0.40;99.90;;;;;;5005701;28;20038;-75
2023/03/11 00:04:39;;;;;;;1.80;0.47;;;0.40;99.90;;;;;;5004081;28;20545;-73
2023/03/11 00:07:06;;;;;;;3.95;0.28;;;0.40;99.90;;;;;;5003716;28;20041;-75
2023/03/11 00:09:32;;;;;;;4.13;0.20;;;0.40;99.90;;;;;;5006147;28;20030;-73
2023/03/11 00:11:57;;;;;;;11.00;1.38;;;0.40;99.90;;;;;;4999569;28;20831;-73
2023/03/11 00:14:23;;;;;;;3.63;0.90;;;0.40;99.90;;;;;;5003791;28;20038;-73
2023/03/11 00:16:49;;;;;;;0.80;0.40;;;0.40;99.90;;;;;;5006388;28;20076;-76
2023/03/11 00:19:14;;;;;;;4.18;0.82;;;0.40;99.90;;;;;;5005584;28;20784;-75
2023/03/11 00:21:40;;;;;;;4.88;0.25;;;0.40;99.90;;;;;;5005897;28;20117;-74
2023/03/11 00:24:06;;;;;;;8.45;1.00;;;0.30;99.90;;;;;;5002806;28;20030;-75
2023/03/11 00:26:34;;;;;;;2.60;0.20;;;0.40;99.90;;;;;;5008418;28;20052;-74
2023/03/11 00:29:00;;;;;;;5.70;1.42;;;0.30;99.90;;;;;;5004512;28;20088;-75
2023/03/11 00:31:25;;;;;;;4.57;0.30;;;0.30;99.90;;;;;;5006748;28;20025;-74
2023/03/11 00:33:52;;;;;;;1.67;0.22;;;0.30;99.90;;;;;;5004508;28;20137;-74
2023/03/11 00:36:27;;;;;;;3.75;0.65;;;0.30;99.90;;;;;;5006671;28;20042;-73
2023/03/11 00:38:53;;;;;;;3.15;0.63;;;0.30;99.90;;;;;;5006408;28;20035;-73
2023/03/11 00:41:19;;;;;;;3.97;0.47;;;0.20;99.90;;;;;;5006428;28;20037;-73
2023/03/11 00:43:48;;;;;;;2.03;0.60;;;0.20;99.90;;;;;;5006540;28;20029;-73
2023/03/11 00:46:13;;;;;;;12.75;0.55;;;0.20;99.90;;;;;;5006122;28;20738;-74
2023/03/11 00:48:39;;;;;;;2.10;0.30;;;0.20;99.90;;;;;;5006888;28;20109;-75
2023/03/11 00:51:06;;;;;;;6.38;0.20;;;0.10;99.90;;;;;;5001322;28;20490;-74
2023/03/11 00:53:32;;;;;;;6.68;0.40;;;0.10;99.90;;;;;;5005598;28;20034;-74
2023/03/11 00:55:58;;;;;;;3.33;0.20;;;0.10;99.90;;;;;;5005049;28;20098;-73
2023/03/11 00:58:27;;;;;;;2.50;0.20;;;0.10;99.90;;;;;;5004739;28;20064;-73
2023/03/11 01:00:52;;;;;;;0.45;0.10;;;0.10;99.90;;;;;;5005995;28;20034;-73
2023/03/11 01:03:18;;;;;;;2.20;0.20;;;0.00;99.90;;;;;;5002819;28;20038;-73
2023/03/11 01:05:43;;;;;;;0.95;0.20;;;0.00;99.90;;;;;;5006617;28;20080;-73
2023/03/11 01:08:09;;;;;;;0.95;0.25;;;0.00;99.90;;;;;;5004667;28;20053;-72
2023/03/11 01:10:35;;;;;;;2.95;0.10;;;-0.10;99.90;;;;;;5006123;28;20061;-73
2023/03/11 01:13:02;;;;;;;2.22;0.40;;;-0.10;99.90;;;;;;4997525;28;20030;-75
2023/03/11 01:15:31;;;;;;;3.92;0.40;;;-0.10;99.90;;;;;;5006119;28;20065;-73
2023/03/11 01:17:56;;;;;;;7.45;0.40;;;-0.20;99.90;;;;;;5000928;28;20037;-74
2023/03/11 01:20:22;;;;;;;0.85;0.17;;;-0.20;99.90;;;;;;5004332;28;20092;-73
2023/03/11 01:22:48;;;;;;;3.05;0.20;;;-0.20;99.90;;;;;;5004564;28;20034;-74
2023/03/11 01:25:15;;;;;;;2.25;0.40;;;-0.20;99.90;;;;;;5007938;28;20668;-73
2023/03/11 01:27:41;;;;;;;3.72;0.32;;;-0.30;99.90;;;;;;5006317;28;20065;-73
2023/03/11 01:30:09;;;;;;;2.35;0.82;;;-0.30;99.90;;;;;;5003902;28;20054;-73
2023/03/11 01:32:35;;;;;;;3.83;0.70;;;-0.30;99.90;;;;;;5006524;28;20045;-73
2023/03/11 01:35:01;;;;;;;1.10;0.38;;;-0.30;99.90;;;;;;5002319;28;20378;-73
2023/03/11 01:37:26;;;;;;;4.38;0.40;;;-0.30;99.90;;;;;;5006344;28;20042;-73
2023/03/11 01:39:52;;;;;;;2.13;0.40;;;-0.30;99.90;;;;;;5005966;28;20038;-73
2023/03/11 01:42:17;;;;;;;4.43;0.25;;;-0.30;99.90;;;;;;5005767;28;20043;-73
2023/03/11 01:44:43;;;;;;;3.08;0.40;;;-0.30;99.90;;;;;;5005949;28;20037;-73
2023/03/11 01:47:08;;;;;;;2.80;0.52;;;-0.30;99.90;;;;;;5005339;28;20083;-73
2023/03/11 01:49:34;;;;;;;7.70;0.75;;;-0.30;99.90;;;;;;5002283;28;20124;-72
2023/03/11 01:52:06;;;;;;;1.25;0.40;;;-0.30;99.90;;;;;;5001504;28;20117;-73
2023/03/11 01:54:36;;;;;;;2.75;0.40;;;-0.40;99.90;;;;;;5005402;28;20053;-73
2023/03/11 01:57:05;;;;;;;2.30;0.35;;;-0.40;99.90;;;;;;5005378;28;20109;-75
2023/03/11 01:59:34;;;;;;;3.80;0.43;;;-0.40;99.90;;;;;;5005847;28;20046;-73
2023/03/11 02:02:27;;;;;;;0.85;0.25;;;-0.50;99.90;;;;;;5004169;28;20434;-73
2023/03/11 02:04:53;;;;;;;2.40;0.43;;;-0.50;99.90;;;;;;5005011;28;20060;-74
2023/03/11 02:07:19;;;;;;;2.53;0.32;;;-0.50;99.90;;;;;;5006763;28;20030;-73
2023/03/11 02:09:45;;;;;;;1.40;0.35;;;-0.50;99.90;;;;;;5006591;28;20037;-73
2023/03/11 02:12:13;;;;;;;4.22;0.65;;;-0.50;99.90;;;;;;5007834;28;20037;-74
2023/03/11 02:14:49;;;;;;;1.92;0.45;;;-0.60;99.90;;;;;;5001391;28;20069;-73
2023/03/11 02:17:15;;;;;;;0.88;0.10;;;-0.60;99.90;;;;;;5021187;28;20038;-73
2023/03/11 02:20:04;;;;;;;3.72;0.95;;;-0.60;99.90;;;;;;5006822;28;20513;-73
2023/03/11 02:22:32;;;;;;;5.47;0.88;;;-0.60;99.90;;;;;;5020883;28;20041;-73
2023/03/11 02:25:31;;;;;;;3.45;0.63;;;-0.70;99.90;;;;;;5009748;28;20087;-72
2023/03/11 02:27:58;;;;;;;6.22;0.40;;;-0.70;99.90;;;;;;5015390;28;20100;-73
2023/03/11 02:30:26;;;;;;;1.27;0.30;;;-0.70;99.90;;;;;;5000508;28;20113;-74
2023/03/11 02:32:53;;;;;;;2.63;0.70;;;-0.70;99.90;;;;;;5006170;28;20118;-73
2023/03/11 02:35:19;;;;;;;4.72;0.57;;;-0.80;99.90;;;;;;5002919;28;20045;-74
2023/03/11 02:37:47;;;;;;;1.95;0.60;;;-0.80;99.90;;;;;;5007497;28;20034;-73
2023/03/11 02:40:22;;;;;;;2.50;0.43;;;-0.80;99.90;;;;;;5003895;28;20034;-73
2023/03/11 02:42:50;;;;;;;2.33;0.38;;;-0.80;99.90;;;;;;5009492;28;20076;-73
2023/03/11 02:45:19;;;;;;;4.72;0.40;;;-0.80;99.90;;;;;;5008187;28;20037;-73
2023/03/11 02:47:45;;;;;;;2.47;0.50;;;-0.90;99.90;;;;;;5008732;28;20053;-73
2023/03/11 02:50:14;;;;;;;3.85;0.43;;;-0.90;99.90;;;;;;5007434;28;20038;-73
2023/03/11 02:52:39;;;;;;;2.80;0.20;;;-0.90;99.90;;;;;;5009007;28;20482;-73
2023/03/11 02:55:06;;;;;;;4.60;0.35;;;-0.90;99.90;;;;;;5003679;28;20026;-73
2023/03/11 02:57:32;;;;;;;6.05;0.60;;;-0.90;99.90;;;;;;5009136;28;20037;-73
2023/03/11 02:59:58;;;;;;;1.00;0.63;;;-0.90;99.90;;;;;;5008156;28;20034;-73
2023/03/11 03:02:24;;;;;;;7.38;0.68;;;-0.90;99.90;;;;;;5004280;28;20371;-73
2023/03/11 03:04:49;;;;;;;2.40;0.40;;;-1.00;99.90;;;;;;5006687;28;20033;-74
2023/03/11 03:07:15;;;;;;;1.23;0.30;;;-1.00;99.90;;;;;;5008441;28;20042;-73
2023/03/11 03:09:41;;;;;;;2.40;0.52;;;-1.00;99.90;;;;;;5006451;28;20028;-74
2023/03/11 03:12:06;;;;;;;1.42;0.17;;;-1.00;99.90;;;;;;5001702;28;20067;-73
2023/03/11 03:14:32;;;;;;;4.00;0.47;;;-1.00;99.90;;;;;;5007134;28;20073;-73
2023/03/11 03:16:58;;;;;;;3.38;0.28;;;-1.00;99.90;;;;;;5009081;28;20034;-74
2023/03/11 03:19:23;;;;;;;1.70;0.40;;;-1.00;99.90;;;;;;5000681;28;20061;-73
2023/03/11 03:21:49;;;;;;;2.35;0.65;;;-1.00;99.90;;;;;;4998993;28;20062;-73
2023/03/11 03:24:15;;;;;;;1.88;0.50;;;-1.00;99.90;;;;;;5002044;28;20052;-73
2023/03/11 03:26:40;;;;;;;4.20;0.55;;;-1.00;99.90;;;;;;5002109;28;20117;-73
2023/03/11 03:29:06;;;;;;;3.92;0.75;;;-1.00;99.90;;;;;;4998723;28;20105;-73
2023/03/11 03:31:32;;;;;;;3.13;0.55;;;-1.00;99.90;;;;;;4995563;28;20565;-73
2023/03/11 03:33:58;;;;;;;2.67;0.82;;;-1.00;99.90;;;;;;4997834;28;20041;-73
2023/03/11 03:36:23;;;;;;;2.78;0.55;;;-1.00;99.90;;;;;;5000598;28;20040;-73
2023/03/11 03:38:56;;;;;;;1.80;0.65;;;-1.00;99.90;;;;;;5001603;28;20031;-73
2023/03/11 03:41:22;;;;;;;2.28;0.70;;;-1.10;99.90;;;;;;5006232;28;20042;-73
2023/03/11 03:43:47;;;;;;;3.58;0.52;;;-1.10;99.90;;;;;;4997130;28;20053;-73
2023/03/11 03:46:13;;;;;;;3.45;1.05;;;-1.10;99.90;;;;;;4997259;28;20034;-75
2023/03/11 03:48:39;;;;;;;2.20;0.70;;;-1.10;99.90;;;;;;4997171;28;20081;-74
2023/03/11 03:51:07;;;;;;;3.00;0.40;;;-1.10;99.90;;;;;;4996602;28;20034;-74
2023/03/11 03:53:34;;;;;;;1.50;0.63;;;-1.10;99.90;;;;;;4996548;28;20569;-74
2023/03/11 03:56:07;;;;;;;2.33;0.50;;;-1.10;99.90;;;;;;4997984;28;20041;-73
2023/03/11 03:58:33;;;;;;;8.25;0.60;;;-1.10;99.90;;;;;;4993957;28;20038;-73
2023/03/11 04:00:59;;;;;;;4.45;0.75;;;-1.10;99.90;;;;;;4998890;28;20030;-73
2023/03/11 04:03:26;;;;;;;6.40;0.63;;;-1.20;99.90;;;;;;5001480;28;20037;-73
2023/03/11 04:05:52;;;;;;;1.85;0.38;;;-1.20;99.90;;;;;;4999938;28;20038;-74
2023/03/11 04:08:17;;;;;;;1.15;0.40;;;-1.20;99.90;;;;;;4998761;28;20038;-72
2023/03/11 04:10:43;;;;;;;6.93;0.52;;;-1.20;99.90;;;;;;4997561;28;20038;-72
2023/03/11 04:13:09;;;;;;;3.60;0.50;;;-1.20;99.90;;;;;;5000989;28;20034;-73
2023/03/11 04:15:37;;;;;;;2.35;0.80;;;-1.30;99.90;;;;;;4996711;28;20121;-73
2023/03/11 04:18:03;;;;;;;2.28;0.52;;;-1.30;99.90;;;;;;5000954;28;20096;-76
2023/03/11 04:20:28;;;;;;;8.48;0.90;;;-1.30;99.90;;;;;;4996170;28;20049;-73
2023/03/11 04:22:54;;;;;;;2.67;0.50;;;-1.30;99.90;;;;;;5003874;28;20030;-73
2023/03/11 04:25:20;;;;;;;1.63;0.50;;;-1.30;99.90;;;;;;4995515;28;20038;-73
2023/03/11 04:27:48;;;;;;;4.05;0.52;;;-1.30;99.90;;;;;;4999078;28;20034;-74
2023/03/11 04:30:14;;;;;;;1.90;0.50;;;-1.30;99.90;;;;;;5000040;28;20033;-73
2023/03/11 04:32:40;;;;;;;2.00;0.63;;;-1.30;99.90;;;;;;4998200;28;20121;-72
2023/03/11 04:35:06;;;;;;;1.60;0.50;;;-1.30;99.90;;;;;;4997590;28;20117;-73
2023/03/11 04:37:32;;;;;;;1.90;0.52;;;-1.30;99.90;;;;;;4998994;28;20034;-73
2023/03/11 04:39:58;;;;;;;2.60;0.50;;;-1.30;99.90;;;;;;4998192;28;20042;-73
2023/03/11 04:42:23;;;;;;;4.22;0.73;;;-1.30;99.90;;;;;;4998760;28;20117;-73
2023/03/11 04:44:49;;;;;;;5.43;0.43;;;-1.40;99.90;;;;;;4999361;28;20622;-73
2023/03/11 04:47:14;;;;;;;3.90;1.05;;;-1.40;99.90;;;;;;4995422;28;20121;-74
2023/03/11 04:49:40;;;;;;;3.50;0.85;;;-1.40;99.90;;;;;;4999180;28;20038;-73
2023/03/11 04:52:06;;;;;;;5.05;0.60;;;-1.40;99.90;;;;;;4997456;28;20037;-73
2023/03/11 04:54:31;;;;;;;3.40;0.32;;;-1.40;99.90;;;;;;5001489;28;20510;-73
2023/03/11 04:56:57;;;;;;;2.67;0.60;;;-1.40;99.90;;;;;;4998524;28;20042;-73
2023/03/11 04:59:22;;;;;;;4.82;0.50;;;-1.40;99.90;;;;;;4996377;28;20522;-73
2023/03/11 05:01:48;;;;;;;2.38;0.90;;;-1.40;99.90;;;;;;4999764;28;20038;-73
2023/03/11 05:04:13;;;;;;;6.28;0.45;;;-1.40;99.90;;;;;;4996800;28;20486;-73
2023/03/11 05:06:39;;;;;;;2.15;0.35;;;-1.50;99.90;;;;;;4996874;28;20042;-73
2023/03/11 05:09:05;;;;;;;5.60;0.63;;;-1.50;99.90;;;;;;4996420;28;20574;-74
2023/03/11 05:11:33;;;;;;;3.78;0.50;;;-1.50;99.90;;;;;;4994038;28;20042;-73
2023/03/11 05:13:59;;;;;;;4.95;0.50;;;-1.50;99.90;;;;;;4996779;28;20386;-73
2023/03/11 05:16:25;;;;;;;1.15;0.30;;;-1.50;99.90;;;;;;4995356;28;20034;-72
2023/03/11 05:18:50;;;;;;;1.65;0.50;;;-1.50;99.90;;;;;;4998297;28;20030;-73
2023/03/11 05:21:16;;;;;;;3.15;0.60;;;-1.60;99.90;;;;;;4998596;28;20030;-73
2023/03/11 05:23:41;;;;;;;0.93;0.30;;;-1.60;99.90;;;;;;4997301;28;20030;-73
2023/03/11 05:26:07;;;;;;;1.02;0.55;;;-1.60;99.90;;;;;;4995935;28;20045;-73
2023/03/11 05:28:32;;;;;;;6.13;0.40;;;-1.60;99.90;;;;;;4994047;28;20069;-73
2023/03/11 05:30:58;;;;;;;8.10;1.50;;;-1.60;99.90;;;;;;4997120;28;20037;-73
2023/03/11 05:33:24;;;;;;;2.47;0.93;;;-1.60;99.90;;;;;;4994356;28;20499;-72
2023/03/11 05:35:50;;;;;;;2.50;0.45;;;-1.60;99.90;;;;;;4995299;28;20038;-72
2023/03/11 05:38:16;;;;;;;1.85;0.50;;;-1.70;99.90;;;;;;4994117;28;20057;-73
2023/03/11 05:40:42;;;;;;;4.65;0.60;;;-1.70;99.90;;;;;;4996902;28;20034;-73
2023/03/11 05:43:07;;;;;;;8.18;1.55;;;-1.70;99.90;;;;;;4994900;28;20430;-74
2023/03/11 05:45:36;;;;;;;4.32;0.88;;;-1.70;99.90;;;;;;4995973;28;20030;-73
2023/03/11 05:48:01;;;;;;;4.18;0.55;;;-1.70;99.90;;;;;;5003113;28;20588;-73
2023/03/11 05:50:27;;;;;;;2.28;0.82;;;-1.70;99.90;;;;;;4992961;28;20062;-73
2023/03/11 05:52:52;;;;;;;2.70;0.60;;;-1.70;99.90;;;;;;4997631;28;20057;-73
2023/03/11 05:55:18;;;;;;;2.72;0.82;;;-1.70;99.90;;;;;;5006196;28;20072;-73
2023/03/11 05:57:43;;;;;;;2.47;0.38;;;-1.80;99.90;;;;;;5000250;28;20104;-72
2023/03/11 06:00:10;;;;;;;4.10;0.52;;;-1.80;99.90;;;;;;4997257;28;20112;-72
2023/03/11 06:02:38;;;;;;;6.60;2.13;;;-1.80;99.90;;;;;;5000247;28;20031;-72
2023/03/11 06:05:04;;;;;;;1.67;0.38;;;-1.70;99.90;;;;;;4999134;28;20506;-74
2023/03/11 06:07:29;;;;;;;1.38;0.40;;;-1.70;99.90;;;;;;4999912;28;20042;-72
2023/03/11 06:09:55;;;;;;;3.15;0.30;;;-1.70;99.90;;;;;;5000651;28;20088;-72
2023/03/11 06:12:20;;;;;;;2.88;0.40;;;-1.70;99.90;;;;;;4997384;28;20498;-73
2023/03/11 06:14:49;;;;;;;1.85;0.68;;;-1.70;99.90;;;;;;5000752;28;20510;-72
2023/03/11 06:17:15;;;;;;;4.38;0.50;;;-1.70;99.90;;;;;;5003994;28;20048;-73
2023/03/11 06:19:40;;;;;;;4.68;0.77;;;-1.70;99.90;;;;;;5000534;28;20030;-72
2023/03/11 06:22:06;;;;;;;2.42;0.47;;;-1.70;99.90;;;;;;5001021;28;20081;-73
2023/03/11 06:24:35;;;;;;;2.63;0.50;;;-1.70;99.90;;;;;;5000527;28;20117;-72
2023/03/11 06:27:00;;;;;;;2.97;0.38;;;-1.70;99.90;;;;;;5016309;28;20041;-73
2023/03/11 06:29:27;;;;;;;1.55;0.50;;;-1.70;99.90;;;;;;5008219;28;20081;-72
2023/03/11 06:31:53;;;;;;;8.98;1.38;;;-1.70;99.90;;;;;;5001148;28;20034;-73
2023/03/11 06:34:19;;;;;;;4.72;0.90;;;-1.70;99.90;;;;;;5005222;28;20108;-73
2023/03/11 06:36:44;;;;;;;4.45;0.75;;;-1.70;99.90;;;;;;5029307;28;20038;-73
2023/03/11 06:39:14;;;;;;;4.60;1.13;;;-1.70;99.90;;;;;;5006288;28;20030;-73
2023/03/11 06:41:41;;;;;;;1.15;0.65;;;-1.60;99.90;;;;;;5004991;28;20033;-72
2023/03/11 06:44:08;;;;;;;3.60;0.70;;;-1.60;99.90;;;;;;5014122;28;20038;-72
2023/03/11 06:46:33;;;;;;;4.75;0.50;;;-1.60;99.90;;;;;;5011494;28;20092;-74
2023/03/11 06:48:59;;;;;;;2.63;0.40;;;-1.60;99.90;;;;;;5004483;28;20427;-74
2023/03/11 06:51:24;;;;;;;2.33;0.50;;;-1.60;99.90;;;;;;5020229;28;20626;-73
2023/03/11 06:53:52;;;;;;;0.98;0.45;;;-1.50;99.90;;;;;;5007293;28;20030;-72
2023/03/11 06:56:19;;;;;;;0.65;0.30;;;-1.50;99.90;;;;;;5002749;28;20521;-72
2023/03/11 06:58:45;;;;;;;7.50;1.42;;;-1.40;99.90;;;;;;5004768;28;20034;-73
2023/03/11 07:01:16;;;;;;;5.13;0.60;;;-1.40;99.90;;;;;;5004752;28;20034;-73
2023/03/11 07:03:42;;;;;;;3.38;0.73;;;-1.40;99.90;;;;;;5000007;28;20080;-73
2023/03/11 07:06:19;;;;;;;1.40;0.60;;;-1.40;99.90;;;;;;4998260;28;20426;-74
2023/03/11 07:08:46;;;;;;;1.10;0.40;;;-1.40;99.90;;;;;;5000389;28;20578;-72
2023/03/11 07:11:15;;;;;;;1.77;0.70;;;-1.30;99.90;;;;;;4996873;28;20096;-73
2023/03/11 07:13:41;;;;;;;1.70;0.75;;;-1.30;99.90;;;;;;4999493;28;20520;-72
2023/03/11 07:16:14;;;;;;;2.83;0.50;;;-1.20;99.90;;;;;;4999810;28;20045;-73
2023/03/11 07:18:40;;;;;;;3.35;0.73;;;-1.20;99.90;;;;;;4999830;28;20159;-73
2023/03/11 07:21:07;;;;;;;3.58;0.77;;;-1.20;99.90;;;;;;4999121;28;20113;-73
2023/03/11 07:23:34;;;;;;;2.47;0.85;;;-1.10;99.90;;;;;;4996660;28;20069;-73
2023/03/11 07:26:00;;;;;;;4.25;1.23;;;-1.10;99.90;;;;;;4996652;28;20061;-73
2023/03/11 07:28:27;;;;;;;2.30;0.75;;;-1.00;99.90;;;;;;4999802;28;21076;-72
2023/03/11 07:30:53;;;;;;;1.38;0.70;;;-0.90;99.90;;;;;;5017005;28;20070;-72
2023/03/11 07:33:19;;;;;;;3.35;0.70;;;-0.80;99.90;;;;;;4999828;28;20061;-73
2023/03/11 07:35:48;;;;;;;3.50;0.80;;;-0.70;99.90;;;;;;4996512;28;20562;-73
2023/03/11 07:38:14;;;;;;;1.92;0.70;;;-0.60;99.90;;;;;;4998581;28;20038;-75
2023/03/11 07:40:40;;;;;;;5.43;1.10;;;-0.50;99.90;;;;;;5001410;28;20570;-73
2023/03/11 07:43:06;;;;;;;3.40;0.85;;;-0.40;99.90;;;;;;5001172;28;20126;-74
2023/03/11 07:45:31;;;;;;;2.80;0.90;;;-0.30;99.90;;;;;;5007779;28;20481;-74
2023/03/11 07:47:57;;;;;;;2.30;1.05;;;-0.10;99.90;;;;;;4998405;28;20041;-74
2023/03/11 07:50:22;;;;;;;6.30;0.82;;;0.00;99.90;;;;;;5002841;28;20526;-73
2023/03/11 07:52:48;;;;;;;2.10;0.88;;;0.20;99.90;;;;;;5004243;28;20037;-74
2023/03/11 07:55:14;;;;;;;3.10;0.80;;;0.60;99.90;;;;;;4999745;28;20061;-73
2023/03/11 07:57:41;;;;;;;5.30;0.63;;;1.00;99.90;;;;;;5002506;28;20452;-73
2023/03/11 08:00:08;;;;;;;2.58;0.70;;;1.30;99.90;;;;;;4999130;28;20034;-74
2023/03/11 08:02:33;;;;;;;3.33;1.02;;;1.70;99.90;;;;;;5000211;28;20029;-73
2023/03/11 08:04:59;;;;;;;4.68;1.02;;;1.90;99.90;;;;;;5003473;28;20548;-74
2023/03/11 08:07:24;;;;;;;9.45;1.60;;;2.00;99.90;;;;;;5003268;28;20037;-74
2023/03/11 08:09:50;;;;;;;4.32;1.50;;;2.10;99.90;;;;;;5015267;28;20110;-73
2023/03/11 08:12:16;;;;;;;2.83;1.13;;;2.30;99.90;;;;;;5004270;28;20040;-73
2023/03/11 08:14:42;;;;;;;16.23;1.55;;;2.70;99.90;;;;;;5001782;28;20699;-74
2023/03/11 08:17:08;;;;;;;4.30;0.70;;;3.00;99.90;;;;;;5002141;28;20069;-73
2023/03/11 08:19:34;;;;;;;5.30;1.00;;;3.10;99.90;;;;;;4993940;28;20038;-73
2023/03/11 08:22:02;;;;;;;7.93;1.23;;;3.00;99.90;;;;;;4996465;28;20034;-74
2023/03/11 08:24:27;;;;;;;1.42;0.60;;;3.00;99.90;;;;;;4996407;28;20060;-73
2023/03/11 08:26:54;;;;;;;4.18;0.60;;;3.00;99.90;;;;;;5006258;28;20057;-73
2023/03/11 08:29:20;;;;;;;2.47;0.60;;;2.90;99.90;;;;;;4996240;28;20045;-73
2023/03/11 08:31:45;;;;;;;1.85;0.43;;;2.90;99.90;;;;;;5000483;28;20050;-73
2023/03/11 08:34:11;;;;;;;3.38;0.70;;;2.90;99.90;;;;;;4994730;28;20755;-73
2023/03/11 08:36:37;;;;;;;2.95;0.77;;;3.00;99.90;;;;;;5011638;28;20029;-75
2023/03/11 08:39:03;;;;;;;4.50;0.90;;;3.00;99.90;;;;;;5001072;28;20030;-74
2023/03/11 08:41:28;;;;;;;3.17;1.13;;;3.10;99.90;;;;;;4999693;28;20114;-73
2023/03/11 08:43:54;;;;;;;3.92;0.68;;;3.20;99.90;;;;;;5002208;28;20534;-74
2023/03/11 08:46:25;;;;;;;1.17;0.40;;;3.20;99.90;;;;;;4999053;28;20503;-72
2023/03/11 08:48:51;;;;;;;4.40;1.35;;;3.20;99.90;;;;;;5027329;28;20057;-75
2023/03/11 08:51:17;;;;;;;2.20;0.55;;;3.20;99.90;;;;;;5001959;28;20092;-73
2023/03/11 08:53:43;;;;;;;1.30;0.30;;;3.30;99.90;;;;;;4999479;28;20034;-74
2023/03/11 08:56:09;;;;;;;7.60;0.60;;;3.50;99.90;;;;;;4998025;28;20041;-72
2023/03/11 08:58:35;;;;;;;3.45;0.68;;;3.60;99.90;;;;;;5003479;28;20573;-73
2023/03/11 09:01:01;;;;;;;7.25;1.88;;;3.70;99.90;;;;;;4999899;28;20049;-75
2023/03/11 09:03:31;;;;;;;11.80;1.05;;;3.90;99.90;;;;;;4999998;28;20545;-75
2023/03/11 09:05:59;;;;;;;2.43;0.40;;;4.10;99.90;;;;;;5002492;28;20034;-73
2023/03/11 09:08:25;;;;;;;1.48;0.52;;;4.30;99.90;;;;;;4998547;28;20736;-74
2023/03/11 09:10:51;;;;;;;3.47;0.82;;;4.50;99.90;;;;;;5028616;28;20029;-74
2023/03/11 09:13:16;;;;;;;6.45;1.33;;;4.60;99.90;;;;;;4995628;28;20041;-75
2023/03/11 09:15:42;;;;;;;4.18;0.52;;;4.80;99.90;;;;;;4998949;28;20046;-74
2023/03/11 09:18:14;;;;;;;2.17;0.30;;;4.90;99.90;;;;;;4999590;28;20108;-74
2023/03/11 09:20:40;;;;;;;2.88;0.40;;;5.00;99.90;;;;;;4994617;28;20069;-74
2023/03/11 09:23:07;;;;;;;2.38;0.30;;;5.20;99.90;;;;;;4997272;28;20040;-73
2023/03/11 09:25:33;;;;;;;3.75;0.77;;;5.20;99.90;;;;;;5000091;28;20026;-74
2023/03/11 09:27:58;;;;;;;6.25;1.10;;;5.30;99.90;;;;;;5000555;28;20033;-75
2023/03/11 09:30:24;;;;;;;1.02;0.25;;;5.40;99.90;;;;;;4996969;28;20041;-74
2023/03/11 09:32:49;;;;;;;3.40;0.82;;;5.50;99.90;;;;;;4995838;28;20040;-74
2023/03/11 09:35:15;;;;;;;5.07;1.23;;;5.50;99.90;;;;;;4995475;28;20038;-74
2023/03/11 09:37:41;;;;;;;4.50;0.40;;;5.40;99.90;;;;;;4998793;28;20038;-73
2023/03/11 09:40:07;;;;;;;5.93;0.40;;;5.50;99.90;;;;;;4994383;28;20037;-75
2023/03/11 09:42:41;;;;;;;3.45;0.57;;;5.40;99.90;;;;;;4994842;28;20160;-75
2023/03/11 09:45:22;;;;;;;3.38;0.30;;;5.50;99.90;;;;;;5025894;28;20038;-74
2023/03/11 09:48:06;;;;;;;3.80;0.40;;;5.50;99.90;;;;;;4995667;28;20049;-75
2023/03/11 09:50:39;;;;;;;1.83;0.22;;;5.40;99.90;;;;;;4999103;28;20494;-73
2023/03/11 09:53:07;;;;;;;1.55;0.45;;;5.50;99.90;;;;;;4995354;28;20038;-75
2023/03/11 09:55:33;;;;;;;1.10;0.22;;;5.60;99.90;;;;;;4998252;28;20062;-74
2023/03/11 09:58:01;;;;;;;1.90;0.10;;;5.60;99.90;;;;;;4994268;28;20069;-74
2023/03/11 10:00:27;;;;;;;1.00;0.35;;;5.70;99.90;;;;;;4990598;28;20065;-74
2023/03/11 10:02:54;;;;;;;4.38;0.20;;;5.80;99.90;;;;;;4994887;28;20483;-74
2023/03/11 10:05:26;;;;;;;2.25;0.17;;;5.90;99.90;;;;;;4995190;28;20120;-74
2023/03/11 10:08:20;;;;;;;2.22;0.45;;;5.90;99.90;;;;;;4996154;28;20537;-76
2023/03/11 10:10:57;;;;;;;1.42;0.40;;;6.00;99.90;;;;;;5017750;28;20038;-76
2023/03/11 10:13:43;;;;;;;7.90;1.80;;;6.10;99.90;;;;;;5011094;28;20034;-75
2023/03/11 10:16:34;;;;;;;4.07;1.02;;;6.20;99.90;;;;;;4998228;28;20049;-75
2023/03/11 10:19:41;;;;;;;3.55;0.40;;;6.50;99.90;;;;;;4997801;28;20522;-74
2023/03/11 10:22:31;;;;;;;2.08;0.40;;;6.70;99.90;;;;;;4990335;28;20478;-75
2023/03/11 10:24:59;;;;;;;1.40;0.50;;;6.70;99.90;;;;;;4996265;28;20049;-75
2023/03/11 10:27:42;;;;;;;3.65;0.40;;;6.70;99.90;;;;;;5003818;28;20057;-76
2023/03/11 10:30:31;;;;;;;8.98;1.02;;;6.60;99.90;;;;;;5008679;28;20050;-76
2023/03/11 10:33:05;;;;;;;2.28;0.40;;;6.50;99.90;;;;;;4997776;28;20156;-73
2023/03/11 10:35:43;;;;;;;5.35;0.40;;;6.40;99.90;;;;;;4994348;28;20042;-74
2023/03/11 10:38:41;;;;;;;1.95;0.22;;;6.30;99.90;;;;;;4994900;28;20049;-73
2023/03/11 10:41:19;;;;;;;2.08;0.30;;;6.30;99.90;;;;;;5001942;28;20037;-76
2023/03/11 10:44:05;;;;;;;3.50;0.43;;;6.20;99.90;;;;;;4998548;28;20038;-74
2023/03/11 10:46:31;;;;;;;0.90;0.20;;;6.10;99.90;;;;;;4999889;28;20050;-75
2023/03/11 10:48:56;;;;;;;2.67;0.47;;;6.10;99.90;;;;;;4999693;28;20605;-75
2023/03/11 10:51:25;;;;;;;1.60;0.30;;;6.10;99.90;;;;;;4996668;28;20042;-74
2023/03/11 10:53:59;;;;;;;3.78;0.40;;;6.10;99.90;;;;;;4993047;28;20030;-76
2023/03/11 10:56:38;;;;;;;2.78;0.43;;;6.10;99.90;;;;;;4999676;28;22994;-74
2023/03/11 10:59:22;;;;;;;0.75;0.10;;;6.20;99.90;;;;;;4996870;28;20048;-74
2023/03/11 11:01:59;;;;;;;7.40;0.52;;;6.30;99.90;;;;;;5005176;28;20121;-75
2023/03/11 11:04:33;;;;;;;5.13;0.50;;;6.30;99.90;;;;;;4997038;28;20048;-75
2023/03/11 11:07:28;;;;;;;1.02;0.20;;;6.30;99.90;;;;;;4999805;28;20064;-74
2023/03/11 11:10:24;;;;;;;2.67;0.52;;;6.30;99.90;;;;;;5000235;28;20026;-77
2023/03/11 11:12:51;;;;;;;5.60;0.43;;;6.30;99.90;;;;;;5004454;28;20728;-74
2023/03/11 11:15:25;;;;;;;8.20;0.47;;;6.30;99.90;;;;;;5006799;28;20070;-74
2023/03/11 11:17:54;;;;;;;5.25;0.32;;;6.30;99.90;;;;;;5009818;28;20515;-74
2023/03/11 11:20:21;;;;;;;1.92;0.45;;;6.30;99.90;;;;;;4997881;28;20046;-77
2023/03/11 11:22:58;;;;;;;4.10;0.60;;;6.30;99.90;;;;;;4997244;28;20057;-74
2023/03/11 11:25:36;;;;;;;0.80;0.20;;;6.30;99.90;;;;;;4998451;28;20083;-73
2023/03/11 11:28:19;;;;;;;9.40;1.08;;;6.40;99.90;;;;;;5007495;28;20041;-73
2023/03/11 11:31:17;;;;;;;1.42;0.22;;;6.30;99.90;;;;;;4998100;28;20038;-73
2023/03/11 11:33:55;;;;;;;2.92;0.20;;;6.40;99.90;;;;;;5005492;28;20042;-73
2023/03/11 11:36:27;;;;;;;2.70;0.77;;;6.40;99.90;;;;;;5014477;28;20453;-73
2023/03/11 11:38:54;;;;;;;1.83;0.32;;;6.40;99.90;;;;;;5008758;28;20033;-73
2023/03/11 11:41:23;;;;;;;4.15;0.52;;;6.40;99.90;;;;;;5008417;28;20113;-73
2023/03/11 11:43:54;;;;;;;3.00;0.38;;;6.40;99.90;;;;;;5008439;28;20068;-75
2023/03/11 11:46:40;;;;;;;6.22;0.50;;;6.40;99.90;;;;;;5007244;28;20140;-74
2023/03/11 11:49:22;;;;;;;1.88;0.40;;;6.40;99.90;;;;;;5002167;28;20049;-76
2023/03/11 11:52:05;;;;;;;3.40;0.20;;;6.40;99.90;;;;;;5012672;28;20038;-74
2023/03/11 11:54:44;;;;;;;5.28;0.75;;;6.30;99.90;;;;;;5006081;28;20112;-75
2023/03/11 11:57:12;;;;;;;2.50;0.10;;;6.30;99.90;;;;;;5011767;28;20030;-74
2023/03/11 11:59:38;;;;;;;4.13;0.75;;;6.30;99.90;;;;;;5000584;28;20123;-74
2023/03/11 12:02:28;;;;;;;1.17;0.10;;;6.20;99.90;;;;;;5007410;28;20491;-75
2023/03/11 12:04:58;;;;;;;4.78;0.73;;;6.20;99.90;;;;;;5006708;28;20445;-74
2023/03/11 12:07:35;;;;;;;2.88;0.20;;;6.30;99.90;;;;;;5005170;28;20038;-74
2023/03/11 12:10:20;;;;;;;1.45;0.47;;;6.30;99.90;;;;;;5003640;28;20030;-75
2023/03/11 12:13:04;;;;;;;3.45;0.30;;;6.30;99.90;;;;;;5006177;28;20406;-74
2023/03/11 12:15:56;;;;;;;2.03;0.60;;;6.30;99.90;;;;;;5013061;28;20095;-73
2023/03/11 12:18:55;;;;;;;2.53;0.45;;;6.20;99.90;;;;;;5004970;28;20045;-74
2023/03/11 12:21:44;;;;;;;1.50;0.40;;;6.30;99.90;;;;;;4998401;28;20722;-74
2023/03/11 12:24:22;;;;;;;3.58;0.35;;;6.40;99.90;;;;;;5004068;28;20038;-74
2023/03/11 12:26:51;;;;;;;3.05;0.20;;;6.30;99.90;;;;;;5003207;28;20030;-74
2023/03/11 12:29:49;;;;;;;3.08;0.10;;;6.30;99.90;;;;;;5005191;28;20038;-74
2023/03/11 12:32:29;;;;;;;2.92;0.30;;;6.30;99.90;;;;;;5002062;28;20549;-74
2023/03/11 12:35:09;;;;;;;3.78;0.77;;;6.40;99.90;;;;;;5009575;28;20092;-74
2023/03/11 12:37:35;;;;;;;3.72;0.30;;;6.40;99.90;;;;;;5001711;28;20030;-73
2023/03/11 12:40:39;;;;;;;2.60;0.40;;;6.40;99.90;;;;;;5004974;28;20030;-75
2023/03/11 12:43:32;;;;;;;1.08;0.60;;;6.40;99.90;;;;;;5010614;28;20063;-75
2023/03/11 12:45:59;;;;;;;1.58;0.30;;;6.50;99.90;;;;;;5000432;28;20096;-73
2023/03/11 12:48:28;;;;;;;1.40;0.20;;;6.40;99.90;;;;;;5000945;28;20541;-74
2023/03/11 12:50:54;;;;;;;2.30;0.20;;;6.50;99.90;;;;;;5001715;28;20068;-73
2023/03/11 12:53:42;;;;;;;2.10;0.45;;;6.50;99.90;;;;;;4999791;28;20112;-74
2023/03/11 12:56:51;;;;;;;1.05;0.28;;;6.50;99.90;;;;;;4999815;28;20045;-74
2023/03/11 12:59:54;;;;;;;5.50;0.50;;;6.50;99.90;;;;;;5003292;28;20086;-74
2023/03/11 13:02:37;;;;;;;3.85;0.30;;;6.50;99.90;;;;;;5017113;28;20046;-75
2023/03/11 13:05:21;;;;;;;3.65;0.30;;;6.50;99.90;;;;;;5014765;28;20041;-73